KSMX/SMX METAR and TAF weather

Enter ICAO airport designator
Station Type Date Time Source
KSMX METAR 2019/12/07 16:51 UTC NOAA

KSMX 071651Z 17013KT 10SM BKN045 18/13 A3010 RMK AO2 SLP194 T01780128 $


Station Type Date Time Source
KSMX Decoded METAR 2019/12/07 16:51 UTC NOAA

SANTA MARIA PUBLIC AIRPORT, CA, United States (KSMX) 34-54N 120-28W 74M
Dec 07, 2019 - 11:51 AM EST / 2019.12.07 1651 UTC
Wind: from the S (170 degrees) at 15 MPH (13 KT):0
Visibility: 10 mile(s):0
Sky conditions: mostly cloudy
Temperature: 64.0 F (17.8 C)
Dew Point: 55.0 F (12.8 C)
Relative Humidity: 72%
Pressure (altimeter): 30.1 in. Hg (1019 hPa)
ob: KSMX 071651Z 17013KT 10SM BKN045 18/13 A3010 RMK AO2 SLP194 T01780128
cycle: 17

Station Type Date Time Source
KSMX TAF 2019/12/07 18:34 UTC NOAA

TAF KSMX 071731Z 0718/0818 17013KT P6SM SCT020 BKN045
FM072000 17012KT 5SM -RA BR BKN012 OVC025
FM080300 18006KT 4SM -RA BKN007 OVC020
FM081100 16004KT 6SM -SHRA BR BKN015 OVC030
FM081500 17006KT P6SM VCSH BKN025 OVC050

Example: see airport list